sensor_id;sensor_type;location;lat;lon;timestamp;P1;durP1;ratioP1;P2;durP2;ratioP2
52590;SDS011;38483;42.620;25.394;2022-07-23T00:00:17;9.90;;;5.67;;
52590;SDS011;38483;42.620;25.394;2022-07-23T00:02:45;11.43;;;5.47;;
52590;SDS011;38483;42.620;25.394;2022-07-23T00:05:12;7.80;;;4.97;;
52590;SDS011;38483;42.620;25.394;2022-07-23T00:07:39;6.67;;;4.57;;
52590;SDS011;38483;42.620;25.394;2022-07-23T00:10:07;8.23;;;4.03;;
52590;SDS011;38483;42.620;25.394;2022-07-23T00:12:34;7.13;;;4.23;;
52590;SDS011;38483;42.620;25.394;2022-07-23T00:15:02;7.13;;;4.10;;
52590;SDS011;38483;42.620;25.394;2022-07-23T00:17:31;8.13;;;4.23;;
52590;SDS011;38483;42.620;25.394;2022-07-23T00:19:58;8.53;;;5.63;;
52590;SDS011;38483;42.620;25.394;2022-07-23T00:22:25;9.10;;;5.13;;
52590;SDS011;38483;42.620;25.394;2022-07-23T00:24:54;8.80;;;5.57;;
52590;SDS011;38483;42.620;25.394;2022-07-23T00:27:41;6.27;;;5.30;;
52590;SDS011;38483;42.620;25.394;2022-07-23T00:30:09;9.27;;;5.13;;
52590;SDS011;38483;42.620;25.394;2022-07-23T00:35:21;6.43;;;4.60;;
52590;SDS011;38483;42.620;25.394;2022-07-23T00:37:50;6.10;;;4.97;;
52590;SDS011;38483;42.620;25.394;2022-07-23T00:40:17;9.97;;;5.17;;
52590;SDS011;38483;42.620;25.394;2022-07-23T00:42:44;7.77;;;4.37;;
52590;SDS011;38483;42.620;25.394;2022-07-23T00:45:11;9.90;;;5.70;;
52590;SDS011;38483;42.620;25.394;2022-07-23T00:47:38;9.97;;;5.50;;
52590;SDS011;38483;42.620;25.394;2022-07-23T00:50:06;9.17;;;4.53;;
52590;SDS011;38483;42.620;25.394;2022-07-23T00:52:35;6.30;;;4.20;;
52590;SDS011;38483;42.620;25.394;2022-07-23T00:55:04;7.00;;;4.63;;
52590;SDS011;38483;42.620;25.394;2022-07-23T00:57:32;7.70;;;4.53;;
52590;SDS011;38483;42.620;25.394;2022-07-23T01:00:00;7.73;;;4.60;;
52590;SDS011;38483;42.620;25.394;2022-07-23T01:02:28;6.60;;;4.50;;
52590;SDS011;38483;42.620;25.394;2022-07-23T01:04:55;9.07;;;4.40;;
52590;SDS011;38483;42.620;25.394;2022-07-23T01:07:22;7.17;;;4.53;;
52590;SDS011;38483;42.620;25.394;2022-07-23T01:09:50;6.93;;;5.20;;
52590;SDS011;38483;42.620;25.394;2022-07-23T01:12:18;8.60;;;5.73;;
52590;SDS011;38483;42.620;25.394;2022-07-23T01:14:45;8.40;;;5.40;;
52590;SDS011;38483;42.620;25.394;2022-07-23T01:17:12;10.87;;;5.73;;
52590;SDS011;38483;42.620;25.394;2022-07-23T01:19:39;9.30;;;5.43;;
52590;SDS011;38483;42.620;25.394;2022-07-23T01:22:07;8.37;;;5.70;;
52590;SDS011;38483;42.620;25.394;2022-07-23T01:24:35;6.93;;;5.43;;
52590;SDS011;38483;42.620;25.394;2022-07-23T01:27:04;6.97;;;5.40;;
52590;SDS011;38483;42.620;25.394;2022-07-23T01:29:35;11.93;;;6.00;;
52590;SDS011;38483;42.620;25.394;2022-07-23T01:32:06;11.50;;;5.93;;
52590;SDS011;38483;42.620;25.394;2022-07-23T01:34:34;9.57;;;5.33;;
52590;SDS011;38483;42.620;25.394;2022-07-23T01:37:01;11.00;;;6.23;;
52590;SDS011;38483;42.620;25.394;2022-07-23T01:39:28;7.90;;;6.13;;
52590;SDS011;38483;42.620;25.394;2022-07-23T01:41:56;10.57;;;5.73;;
52590;SDS011;38483;42.620;25.394;2022-07-23T01:44:25;6.70;;;5.03;;
52590;SDS011;38483;42.620;25.394;2022-07-23T01:46:52;8.00;;;5.17;;
52590;SDS011;38483;42.620;25.394;2022-07-23T01:49:20;9.87;;;5.73;;
52590;SDS011;38483;42.620;25.394;2022-07-23T01:51:59;9.33;;;6.80;;
52590;SDS011;38483;42.620;25.394;2022-07-23T01:54:33;10.13;;;6.83;;
52590;SDS011;38483;42.620;25.394;2022-07-23T01:57:02;8.77;;;6.70;;
52590;SDS011;38483;42.620;25.394;2022-07-23T01:59:30;10.07;;;6.93;;
52590;SDS011;38483;42.620;25.394;2022-07-23T02:01:58;13.13;;;6.47;;
52590;SDS011;38483;42.620;25.394;2022-07-23T02:04:26;8.67;;;6.37;;
52590;SDS011;38483;42.620;25.394;2022-07-23T02:06:53;6.03;;;5.43;;
52590;SDS011;38483;42.620;25.394;2022-07-23T02:09:20;7.93;;;5.67;;
52590;SDS011;38483;42.620;25.394;2022-07-23T02:11:47;10.70;;;5.77;;
52590;SDS011;38483;42.620;25.394;2022-07-23T02:14:14;7.60;;;5.83;;
52590;SDS011;38483;42.620;25.394;2022-07-23T02:16:41;10.10;;;5.90;;
52590;SDS011;38483;42.620;25.394;2022-07-23T02:19:10;10.50;;;6.00;;
52590;SDS011;38483;42.620;25.394;2022-07-23T02:21:37;13.27;;;6.67;;
52590;SDS011;38483;42.620;25.394;2022-07-23T02:24:04;8.40;;;6.87;;
52590;SDS011;38483;42.620;25.394;2022-07-23T02:26:31;9.70;;;6.20;;
52590;SDS011;38483;42.620;25.394;2022-07-23T02:29:04;9.60;;;6.43;;
52590;SDS011;38483;42.620;25.394;2022-07-23T02:31:32;14.40;;;6.67;;
52590;SDS011;38483;42.620;25.394;2022-07-23T02:33:59;8.50;;;6.30;;
52590;SDS011;38483;42.620;25.394;2022-07-23T02:36:27;8.23;;;6.40;;
52590;SDS011;38483;42.620;25.394;2022-07-23T02:38:55;10.77;;;6.70;;
52590;SDS011;38483;42.620;25.394;2022-07-23T02:41:22;10.67;;;7.30;;
52590;SDS011;38483;42.620;25.394;2022-07-23T02:43:50;8.33;;;6.50;;
52590;SDS011;38483;42.620;25.394;2022-07-23T02:46:17;8.90;;;6.90;;
52590;SDS011;38483;42.620;25.394;2022-07-23T02:48:45;8.73;;;6.17;;
52590;SDS011;38483;42.620;25.394;2022-07-23T02:51:13;11.83;;;6.47;;
52590;SDS011;38483;42.620;25.394;2022-07-23T02:53:48;10.37;;;6.73;;
52590;SDS011;38483;42.620;25.394;2022-07-23T02:56:15;10.10;;;6.63;;
52590;SDS011;38483;42.620;25.394;2022-07-23T02:58:42;9.63;;;6.53;;
52590;SDS011;38483;42.620;25.394;2022-07-23T03:01:09;9.93;;;6.20;;
52590;SDS011;38483;42.620;25.394;2022-07-23T03:03:36;7.83;;;6.20;;
52590;SDS011;38483;42.620;25.394;2022-07-23T03:06:04;9.87;;;6.17;;
52590;SDS011;38483;42.620;25.394;2022-07-23T03:08:31;8.60;;;6.20;;
52590;SDS011;38483;42.620;25.394;2022-07-23T03:10:58;8.37;;;5.90;;
52590;SDS011;38483;42.620;25.394;2022-07-23T03:13:25;8.53;;;5.87;;
52590;SDS011;38483;42.620;25.394;2022-07-23T03:15:54;10.77;;;6.03;;
52590;SDS011;38483;42.620;25.394;2022-07-23T03:18:21;6.37;;;5.43;;
52590;SDS011;38483;42.620;25.394;2022-07-23T03:20:48;8.57;;;5.60;;
52590;SDS011;38483;42.620;25.394;2022-07-23T03:23:15;7.40;;;5.53;;
52590;SDS011;38483;42.620;25.394;2022-07-23T03:25:43;8.30;;;5.80;;
52590;SDS011;38483;42.620;25.394;2022-07-23T03:28:10;5.63;;;5.00;;
52590;SDS011;38483;42.620;25.394;2022-07-23T03:30:37;7.77;;;5.17;;
52590;SDS011;38483;42.620;25.394;2022-07-23T03:33:04;7.90;;;5.20;;
52590;SDS011;38483;42.620;25.394;2022-07-23T03:35:32;5.67;;;5.00;;
52590;SDS011;38483;42.620;25.394;2022-07-23T03:38:36;8.00;;;5.20;;
52590;SDS011;38483;42.620;25.394;2022-07-23T03:41:03;7.23;;;4.97;;
52590;SDS011;38483;42.620;25.394;2022-07-23T03:43:31;8.27;;;5.00;;
52590;SDS011;38483;42.620;25.394;2022-07-23T03:45:59;7.97;;;5.50;;
52590;SDS011;38483;42.620;25.394;2022-07-23T03:48:26;6.30;;;4.97;;
52590;SDS011;38483;42.620;25.394;2022-07-23T03:50:53;9.93;;;5.10;;
52590;SDS011;38483;42.620;25.394;2022-07-23T03:53:21;12.13;;;6.27;;
52590;SDS011;38483;42.620;25.394;2022-07-23T03:55:47;10.17;;;6.43;;
52590;SDS011;38483;42.620;25.394;2022-07-23T03:58:14;8.10;;;6.07;;
52590;SDS011;38483;42.620;25.394;2022-07-23T04:00:42;10.20;;;6.17;;
52590;SDS011;38483;42.620;25.394;2022-07-23T04:03:10;14.17;;;7.43;;
52590;SDS011;38483;42.620;25.394;2022-07-23T04:05:37;10.17;;;6.90;;
52590;SDS011;38483;42.620;25.394;2022-07-23T04:08:06;10.03;;;6.40;;
52590;SDS011;38483;42.620;25.394;2022-07-23T04:10:36;13.10;;;6.47;;
52590;SDS011;38483;42.620;25.394;2022-07-23T04:13:05;10.00;;;6.23;;
52590;SDS011;38483;42.620;25.394;2022-07-23T04:15:32;9.60;;;5.90;;
52590;SDS011;38483;42.620;25.394;2022-07-23T04:17:59;8.43;;;6.60;;
52590;SDS011;38483;42.620;25.394;2022-07-23T04:20:40;10.23;;;6.67;;
52590;SDS011;38483;42.620;25.394;2022-07-23T04:23:09;7.07;;;5.50;;
52590;SDS011;38483;42.620;25.394;2022-07-23T04:25:40;8.30;;;6.23;;
52590;SDS011;38483;42.620;25.394;2022-07-23T04:28:07;7.87;;;5.40;;
52590;SDS011;38483;42.620;25.394;2022-07-23T04:30:34;11.57;;;5.87;;
52590;SDS011;38483;42.620;25.394;2022-07-23T04:33:02;11.53;;;5.60;;
52590;SDS011;38483;42.620;25.394;2022-07-23T04:35:33;10.50;;;5.90;;
52590;SDS011;38483;42.620;25.394;2022-07-23T04:38:10;10.47;;;5.20;;
52590;SDS011;38483;42.620;25.394;2022-07-23T04:40:38;9.17;;;5.27;;
52590;SDS011;38483;42.620;25.394;2022-07-23T04:43:05;7.40;;;5.07;;
52590;SDS011;38483;42.620;25.394;2022-07-23T04:45:37;9.83;;;5.13;;
52590;SDS011;38483;42.620;25.394;2022-07-23T04:48:05;8.60;;;5.20;;
52590;SDS011;38483;42.620;25.394;2022-07-23T04:50:32;10.10;;;6.37;;
52590;SDS011;38483;42.620;25.394;2022-07-23T04:52:59;9.57;;;6.20;;
52590;SDS011;38483;42.620;25.394;2022-07-23T04:55:27;8.10;;;6.03;;
52590;SDS011;38483;42.620;25.394;2022-07-23T04:57:54;7.30;;;5.60;;
52590;SDS011;38483;42.620;25.394;2022-07-23T05:00:21;10.73;;;5.97;;
52590;SDS011;38483;42.620;25.394;2022-07-23T05:02:48;7.63;;;6.33;;
52590;SDS011;38483;42.620;25.394;2022-07-23T05:05:16;8.60;;;7.33;;
52590;SDS011;38483;42.620;25.394;2022-07-23T05:07:44;10.40;;;6.37;;
52590;SDS011;38483;42.620;25.394;2022-07-23T05:10:11;10.53;;;6.10;;
52590;SDS011;38483;42.620;25.394;2022-07-23T05:12:38;8.93;;;5.83;;
52590;SDS011;38483;42.620;25.394;2022-07-23T05:15:05;6.90;;;6.10;;
52590;SDS011;38483;42.620;25.394;2022-07-23T05:17:33;7.93;;;5.97;;
52590;SDS011;38483;42.620;25.394;2022-07-23T05:20:02;12.27;;;5.90;;
52590;SDS011;38483;42.620;25.394;2022-07-23T05:22:29;9.30;;;6.00;;
52590;SDS011;38483;42.620;25.394;2022-07-23T05:24:56;9.63;;;5.77;;
52590;SDS011;38483;42.620;25.394;2022-07-23T05:27:24;7.00;;;5.47;;
52590;SDS011;38483;42.620;25.394;2022-07-23T05:29:51;9.13;;;5.60;;
52590;SDS011;38483;42.620;25.394;2022-07-23T05:32:18;8.83;;;5.63;;
52590;SDS011;38483;42.620;25.394;2022-07-23T05:34:53;8.63;;;5.17;;
52590;SDS011;38483;42.620;25.394;2022-07-23T05:37:20;10.83;;;5.50;;
52590;SDS011;38483;42.620;25.394;2022-07-23T05:39:47;11.93;;;5.53;;
52590;SDS011;38483;42.620;25.394;2022-07-23T05:42:14;9.57;;;5.37;;
52590;SDS011;38483;42.620;25.394;2022-07-23T05:44:41;7.77;;;5.07;;
52590;SDS011;38483;42.620;25.394;2022-07-23T05:47:08;8.53;;;6.80;;
52590;SDS011;38483;42.620;25.394;2022-07-23T05:49:36;6.67;;;4.97;;
52590;SDS011;38483;42.620;25.394;2022-07-23T05:52:41;7.77;;;5.30;;
52590;SDS011;38483;42.620;25.394;2022-07-23T05:55:34;9.07;;;4.83;;
52590;SDS011;38483;42.620;25.394;2022-07-23T05:58:01;7.30;;;4.77;;
52590;SDS011;38483;42.620;25.394;2022-07-23T06:00:30;10.60;;;5.20;;
52590;SDS011;38483;42.620;25.394;2022-07-23T06:02:57;7.07;;;4.70;;
52590;SDS011;38483;42.620;25.394;2022-07-23T06:05:27;6.03;;;4.70;;
52590;SDS011;38483;42.620;25.394;2022-07-23T06:07:56;12.70;;;5.80;;
52590;SDS011;38483;42.620;25.394;2022-07-23T06:10:23;9.47;;;5.23;;
52590;SDS011;38483;42.620;25.394;2022-07-23T06:12:50;8.03;;;5.10;;
52590;SDS011;38483;42.620;25.394;2022-07-23T06:15:17;10.70;;;5.00;;
52590;SDS011;38483;42.620;25.394;2022-07-23T06:17:45;8.73;;;5.03;;
52590;SDS011;38483;42.620;25.394;2022-07-23T06:20:12;6.80;;;5.30;;
52590;SDS011;38483;42.620;25.394;2022-07-23T06:22:41;11.67;;;6.00;;
52590;SDS011;38483;42.620;25.394;2022-07-23T06:25:08;9.77;;;4.67;;
52590;SDS011;38483;42.620;25.394;2022-07-23T06:27:45;12.27;;;5.30;;
52590;SDS011;38483;42.620;25.394;2022-07-23T06:30:13;8.07;;;4.53;;
52590;SDS011;38483;42.620;25.394;2022-07-23T06:32:47;6.57;;;4.27;;
52590;SDS011;38483;42.620;25.394;2022-07-23T06:35:15;7.27;;;4.77;;
52590;SDS011;38483;42.620;25.394;2022-07-23T06:37:46;8.97;;;4.60;;
52590;SDS011;38483;42.620;25.394;2022-07-23T06:40:14;9.27;;;4.90;;
52590;SDS011;38483;42.620;25.394;2022-07-23T06:42:41;9.73;;;5.77;;
52590;SDS011;38483;42.620;25.394;2022-07-23T06:45:15;9.13;;;5.63;;
52590;SDS011;38483;42.620;25.394;2022-07-23T06:47:42;9.27;;;5.67;;
52590;SDS011;38483;42.620;25.394;2022-07-23T06:50:09;8.47;;;4.43;;
52590;SDS011;38483;42.620;25.394;2022-07-23T06:52:37;10.40;;;5.07;;
52590;SDS011;38483;42.620;25.394;2022-07-23T06:55:08;8.73;;;5.00;;
52590;SDS011;38483;42.620;25.394;2022-07-23T06:57:37;8.63;;;4.60;;
52590;SDS011;38483;42.620;25.394;2022-07-23T07:00:05;9.20;;;4.77;;
52590;SDS011;38483;42.620;25.394;2022-07-23T07:02:33;5.97;;;4.73;;
52590;SDS011;38483;42.620;25.394;2022-07-23T07:05:00;10.27;;;4.47;;
52590;SDS011;38483;42.620;25.394;2022-07-23T07:07:32;7.70;;;4.73;;
52590;SDS011;38483;42.620;25.394;2022-07-23T07:09:59;8.57;;;5.80;;
52590;SDS011;38483;42.620;25.394;2022-07-23T07:12:28;4.90;;;4.40;;
52590;SDS011;38483;42.620;25.394;2022-07-23T07:14:55;8.53;;;4.77;;
52590;SDS011;38483;42.620;25.394;2022-07-23T07:17:23;8.70;;;4.83;;
52590;SDS011;38483;42.620;25.394;2022-07-23T07:19:50;8.50;;;5.37;;
52590;SDS011;38483;42.620;25.394;2022-07-23T07:22:29;7.67;;;5.00;;
52590;SDS011;38483;42.620;25.394;2022-07-23T07:25:01;12.32;;;5.10;;
52590;SDS011;38483;42.620;25.394;2022-07-23T07:27:42;7.63;;;5.10;;
52590;SDS011;38483;42.620;25.394;2022-07-23T07:30:12;12.48;;;6.10;;
52590;SDS011;38483;42.620;25.394;2022-07-23T07:32:44;9.75;;;4.97;;
52590;SDS011;38483;42.620;25.394;2022-07-23T07:35:22;8.55;;;5.38;;
52590;SDS011;38483;42.620;25.394;2022-07-23T07:37:49;9.15;;;5.18;;
52590;SDS011;38483;42.620;25.394;2022-07-23T07:40:16;8.98;;;5.70;;
52590;SDS011;38483;42.620;25.394;2022-07-23T07:42:44;7.55;;;4.60;;
52590;SDS011;38483;42.620;25.394;2022-07-23T07:45:12;9.73;;;4.95;;
52590;SDS011;38483;42.620;25.394;2022-07-23T07:47:39;13.68;;;6.07;;
52590;SDS011;38483;42.620;25.394;2022-07-23T07:50:06;11.80;;;5.50;;
52590;SDS011;38483;42.620;25.394;2022-07-23T07:52:35;12.35;;;4.78;;
52590;SDS011;38483;42.620;25.394;2022-07-23T07:55:06;7.13;;;5.07;;
52590;SDS011;38483;42.620;25.394;2022-07-23T07:57:36;7.82;;;4.38;;
52590;SDS011;38483;42.620;25.394;2022-07-23T08:00:04;9.40;;;4.90;;
52590;SDS011;38483;42.620;25.394;2022-07-23T08:02:43;8.30;;;4.57;;
52590;SDS011;38483;42.620;25.394;2022-07-23T08:05:27;9.57;;;4.55;;
52590;SDS011;38483;42.620;25.394;2022-07-23T08:07:56;5.50;;;4.63;;
52590;SDS011;38483;42.620;25.394;2022-07-23T08:10:25;5.60;;;4.03;;
52590;SDS011;38483;42.620;25.394;2022-07-23T08:13:07;10.93;;;6.90;;
52590;SDS011;38483;42.620;25.394;2022-07-23T08:16:28;6.88;;;4.55;;
52590;SDS011;38483;42.620;25.394;2022-07-23T08:19:48;9.30;;;5.80;;
52590;SDS011;38483;42.620;25.394;2022-07-23T08:23:09;7.75;;;5.10;;
52590;SDS011;38483;42.620;25.394;2022-07-23T08:26:29;6.68;;;4.88;;
52590;SDS011;38483;42.620;25.394;2022-07-23T08:29:50;8.18;;;5.25;;
52590;SDS011;38483;42.620;25.394;2022-07-23T08:33:17;10.73;;;4.70;;
52590;SDS011;38483;42.620;25.394;2022-07-23T08:36:35;7.85;;;5.60;;
52590;SDS011;38483;42.620;25.394;2022-07-23T08:39:50;9.40;;;5.00;;
52590;SDS011;38483;42.620;25.394;2022-07-23T08:42:17;7.15;;;5.13;;
52590;SDS011;38483;42.620;25.394;2022-07-23T08:44:46;7.50;;;4.80;;
52590;SDS011;38483;42.620;25.394;2022-07-23T08:47:13;9.32;;;5.22;;
52590;SDS011;38483;42.620;25.394;2022-07-23T08:49:41;9.00;;;5.15;;
52590;SDS011;38483;42.620;25.394;2022-07-23T08:52:09;6.68;;;4.80;;
52590;SDS011;38483;42.620;25.394;2022-07-23T08:54:36;24.40;;;11.80;;
52590;SDS011;38483;42.620;25.394;2022-07-23T08:57:04;7.47;;;4.95;;
52590;SDS011;38483;42.620;25.394;2022-07-23T08:59:31;8.32;;;5.43;;
52590;SDS011;38483;42.620;25.394;2022-07-23T09:01:58;10.10;;;5.25;;
52590;SDS011;38483;42.620;25.394;2022-07-23T09:04:27;8.20;;;4.93;;
52590;SDS011;38483;42.620;25.394;2022-07-23T09:06:54;8.45;;;5.13;;
52590;SDS011;38483;42.620;25.394;2022-07-23T09:09:22;9.18;;;5.30;;
52590;SDS011;38483;42.620;25.394;2022-07-23T09:12:01;9.27;;;4.60;;
52590;SDS011;38483;42.620;25.394;2022-07-23T09:14:37;10.90;;;5.25;;
52590;SDS011;38483;42.620;25.394;2022-07-23T09:17:14;5.28;;;4.13;;
52590;SDS011;38483;42.620;25.394;2022-07-23T09:19:44;8.70;;;4.95;;
52590;SDS011;38483;42.620;25.394;2022-07-23T09:22:17;13.90;;;5.95;;
52590;SDS011;38483;42.620;25.394;2022-07-23T09:25:14;12.30;;;6.30;;
52590;SDS011;38483;42.620;25.394;2022-07-23T09:30:21;8.68;;;4.60;;
52590;SDS011;38483;42.620;25.394;2022-07-23T09:35:54;11.70;;;5.53;;
52590;SDS011;38483;42.620;25.394;2022-07-23T09:38:23;9.65;;;4.63;;
52590;SDS011;38483;42.620;25.394;2022-07-23T09:41:06;8.27;;;4.75;;
52590;SDS011;38483;42.620;25.394;2022-07-23T09:43:34;7.43;;;4.30;;
52590;SDS011;38483;42.620;25.394;2022-07-23T09:46:23;9.18;;;4.70;;
52590;SDS011;38483;42.620;25.394;2022-07-23T09:48:55;9.00;;;4.70;;
52590;SDS011;38483;42.620;25.394;2022-07-23T09:51:23;10.98;;;4.63;;
52590;SDS011;38483;42.620;25.394;2022-07-23T09:54:03;9.20;;;4.55;;
52590;SDS011;38483;42.620;25.394;2022-07-23T09:56:31;9.18;;;4.78;;
52590;SDS011;38483;42.620;25.394;2022-07-23T09:59:00;8.02;;;5.05;;
52590;SDS011;38483;42.620;25.394;2022-07-23T10:01:33;9.30;;;4.85;;
52590;SDS011;38483;42.620;25.394;2022-07-23T10:04:00;7.68;;;4.97;;
52590;SDS011;38483;42.620;25.394;2022-07-23T10:06:50;8.13;;;4.38;;
52590;SDS011;38483;42.620;25.394;2022-07-23T10:09:39;12.50;;;4.85;;
52590;SDS011;38483;42.620;25.394;2022-07-23T10:12:30;8.75;;;4.80;;
52590;SDS011;38483;42.620;25.394;2022-07-23T10:15:01;11.35;;;4.60;;
52590;SDS011;38483;42.620;25.394;2022-07-23T10:17:29;10.23;;;4.65;;
52590;SDS011;38483;42.620;25.394;2022-07-23T10:19:56;8.52;;;4.45;;
52590;SDS011;38483;42.620;25.394;2022-07-23T10:22:30;7.57;;;4.50;;
52590;SDS011;38483;42.620;25.394;2022-07-23T10:25:07;9.07;;;5.00;;
52590;SDS011;38483;42.620;25.394;2022-07-23T10:36:22;8.38;;;4.55;;
52590;SDS011;38483;42.620;25.394;2022-07-23T10:39:08;6.65;;;4.78;;
52590;SDS011;38483;42.620;25.394;2022-07-23T10:41:41;10.60;;;5.00;;
52590;SDS011;38483;42.620;25.394;2022-07-23T10:44:15;8.77;;;4.65;;
52590;SDS011;38483;42.620;25.394;2022-07-23T10:46:57;8.43;;;4.80;;
52590;SDS011;38483;42.620;25.394;2022-07-23T10:49:39;11.52;;;5.65;;
52590;SDS011;38483;42.620;25.394;2022-07-23T10:54:47;11.77;;;5.00;;
52590;SDS011;38483;42.620;25.394;2022-07-23T10:57:18;10.75;;;4.82;;
52590;SDS011;38483;42.620;25.394;2022-07-23T11:02:41;8.82;;;4.75;;
52590;SDS011;38483;42.620;25.394;2022-07-23T11:05:10;12.38;;;5.70;;
52590;SDS011;38483;42.620;25.394;2022-07-23T11:10:35;11.18;;;4.50;;
52590;SDS011;38483;42.620;25.394;2022-07-23T11:16:16;7.15;;;4.45;;
52590;SDS011;38483;42.620;25.394;2022-07-23T11:34:50;9.63;;;4.55;;
52590;SDS011;38483;42.620;25.394;2022-07-23T11:37:31;14.63;;;5.35;;
52590;SDS011;38483;42.620;25.394;2022-07-23T11:39:59;9.75;;;5.50;;
52590;SDS011;38483;42.620;25.394;2022-07-23T11:42:26;10.15;;;5.70;;
52590;SDS011;38483;42.620;25.394;2022-07-23T11:44:57;15.82;;;5.18;;
52590;SDS011;38483;42.620;25.394;2022-07-23T11:47:25;11.40;;;5.45;;
52590;SDS011;38483;42.620;25.394;2022-07-23T11:50:45;8.15;;;4.90;;
52590;SDS011;38483;42.620;25.394;2022-07-23T11:54:07;8.52;;;4.43;;
52590;SDS011;38483;42.620;25.394;2022-07-23T11:57:32;11.93;;;5.47;;
52590;SDS011;38483;42.620;25.394;2022-07-23T12:00:54;9.93;;;4.97;;
52590;SDS011;38483;42.620;25.394;2022-07-23T12:04:13;9.40;;;5.07;;
52590;SDS011;38483;42.620;25.394;2022-07-23T12:07:32;9.50;;;4.60;;
52590;SDS011;38483;42.620;25.394;2022-07-23T12:10:52;10.35;;;5.50;;
52590;SDS011;38483;42.620;25.394;2022-07-23T12:14:13;9.52;;;5.03;;
52590;SDS011;38483;42.620;25.394;2022-07-23T12:16:40;10.77;;;4.95;;
52590;SDS011;38483;42.620;25.394;2022-07-23T12:19:07;6.55;;;4.60;;
52590;SDS011;38483;42.620;25.394;2022-07-23T12:21:34;7.43;;;4.80;;
52590;SDS011;38483;42.620;25.394;2022-07-23T12:24:06;13.52;;;5.70;;
52590;SDS011;38483;42.620;25.394;2022-07-23T12:26:34;9.07;;;5.00;;
52590;SDS011;38483;42.620;25.394;2022-07-23T12:29:01;11.30;;;5.03;;
52590;SDS011;38483;42.620;25.394;2022-07-23T12:31:28;9.43;;;5.70;;
52590;SDS011;38483;42.620;25.394;2022-07-23T12:33:55;14.48;;;5.05;;
52590;SDS011;38483;42.620;25.394;2022-07-23T12:36:36;8.70;;;5.05;;
52590;SDS011;38483;42.620;25.394;2022-07-23T12:39:06;9.13;;;5.22;;
52590;SDS011;38483;42.620;25.394;2022-07-23T12:41:51;10.45;;;4.90;;
52590;SDS011;38483;42.620;25.394;2022-07-23T12:44:19;7.93;;;4.90;;
52590;SDS011;38483;42.620;25.394;2022-07-23T12:46:49;9.38;;;4.88;;
52590;SDS011;38483;42.620;25.394;2022-07-23T12:49:26;7.82;;;5.18;;
52590;SDS011;38483;42.620;25.394;2022-07-23T12:51:56;8.60;;;5.05;;
52590;SDS011;38483;42.620;25.394;2022-07-23T12:54:26;12.10;;;5.32;;
52590;SDS011;38483;42.620;25.394;2022-07-23T12:56:54;9.20;;;5.47;;
52590;SDS011;38483;42.620;25.394;2022-07-23T12:59:22;8.75;;;4.68;;
52590;SDS011;38483;42.620;25.394;2022-07-23T13:01:56;8.85;;;5.32;;
52590;SDS011;38483;42.620;25.394;2022-07-23T13:04:25;8.52;;;4.68;;
52590;SDS011;38483;42.620;25.394;2022-07-23T13:06:56;13.05;;;5.88;;
52590;SDS011;38483;42.620;25.394;2022-07-23T13:09:27;12.40;;;5.63;;
52590;SDS011;38483;42.620;25.394;2022-07-23T13:11:59;12.45;;;4.72;;
52590;SDS011;38483;42.620;25.394;2022-07-23T13:14:26;10.20;;;6.20;;
52590;SDS011;38483;42.620;25.394;2022-07-23T13:16:55;9.65;;;5.78;;
52590;SDS011;38483;42.620;25.394;2022-07-23T13:19:25;10.50;;;5.22;;
52590;SDS011;38483;42.620;25.394;2022-07-23T13:21:53;10.65;;;5.15;;
52590;SDS011;38483;42.620;25.394;2022-07-23T13:24:21;9.25;;;4.80;;
52590;SDS011;38483;42.620;25.394;2022-07-23T13:26:48;13.18;;;5.85;;
52590;SDS011;38483;42.620;25.394;2022-07-23T13:29:17;9.98;;;5.63;;
52590;SDS011;38483;42.620;25.394;2022-07-23T13:31:45;9.55;;;5.60;;
52590;SDS011;38483;42.620;25.394;2022-07-23T13:34:15;10.95;;;5.30;;
52590;SDS011;38483;42.620;25.394;2022-07-23T13:36:41;9.75;;;5.40;;
52590;SDS011;38483;42.620;25.394;2022-07-23T13:39:10;11.23;;;5.10;;
52590;SDS011;38483;42.620;25.394;2022-07-23T13:41:37;12.75;;;5.50;;
52590;SDS011;38483;42.620;25.394;2022-07-23T13:44:05;10.68;;;5.35;;
52590;SDS011;38483;42.620;25.394;2022-07-23T13:46:33;9.18;;;4.97;;
52590;SDS011;38483;42.620;25.394;2022-07-23T13:49:02;10.75;;;4.80;;
52590;SDS011;38483;42.620;25.394;2022-07-23T13:51:32;8.20;;;5.35;;
52590;SDS011;38483;42.620;25.394;2022-07-23T13:53:59;9.55;;;5.35;;
52590;SDS011;38483;42.620;25.394;2022-07-23T13:56:26;8.88;;;5.40;;
52590;SDS011;38483;42.620;25.394;2022-07-23T13:58:53;14.10;;;5.57;;
52590;SDS011;38483;42.620;25.394;2022-07-23T14:01:20;8.95;;;5.03;;
52590;SDS011;38483;42.620;25.394;2022-07-23T14:03:47;11.15;;;5.72;;
52590;SDS011;38483;42.620;25.394;2022-07-23T14:06:15;11.40;;;5.35;;
52590;SDS011;38483;42.620;25.394;2022-07-23T14:08:43;10.32;;;5.03;;
52590;SDS011;38483;42.620;25.394;2022-07-23T14:11:11;9.13;;;5.28;;
52590;SDS011;38483;42.620;25.394;2022-07-23T14:13:39;12.05;;;5.00;;
52590;SDS011;38483;42.620;25.394;2022-07-23T14:16:07;9.60;;;5.93;;
52590;SDS011;38483;42.620;25.394;2022-07-23T14:18:34;8.07;;;5.13;;
52590;SDS011;38483;42.620;25.394;2022-07-23T14:21:01;7.72;;;5.10;;
52590;SDS011;38483;42.620;25.394;2022-07-23T14:23:29;10.02;;;5.65;;
52590;SDS011;38483;42.620;25.394;2022-07-23T14:25:56;12.20;;;5.00;;
52590;SDS011;38483;42.620;25.394;2022-07-23T14:28:23;12.25;;;6.90;;
52590;SDS011;38483;42.620;25.394;2022-07-23T14:30:51;12.10;;;5.95;;
52590;SDS011;38483;42.620;25.394;2022-07-23T14:33:18;9.00;;;4.93;;
52590;SDS011;38483;42.620;25.394;2022-07-23T14:36:39;11.70;;;5.25;;
52590;SDS011;38483;42.620;25.394;2022-07-23T18:21:47;18.70;;;8.23;;
52590;SDS011;38483;42.620;25.394;2022-07-23T18:24:14;18.55;;;8.27;;
52590;SDS011;38483;42.620;25.394;2022-07-23T18:26:41;15.10;;;6.88;;
52590;SDS011;38483;42.620;25.394;2022-07-23T18:29:08;13.52;;;7.47;;
52590;SDS011;38483;42.620;25.394;2022-07-23T18:31:35;15.77;;;9.30;;
52590;SDS011;38483;42.620;25.394;2022-07-23T18:34:02;13.90;;;9.63;;
52590;SDS011;38483;42.620;25.394;2022-07-23T18:36:29;17.75;;;10.10;;
52590;SDS011;38483;42.620;25.394;2022-07-23T18:38:56;15.23;;;8.23;;
52590;SDS011;38483;42.620;25.394;2022-07-23T18:41:29;14.45;;;7.50;;
52590;SDS011;38483;42.620;25.394;2022-07-23T18:43:57;15.35;;;8.05;;
52590;SDS011;38483;42.620;25.394;2022-07-23T18:46:24;13.02;;;8.48;;
52590;SDS011;38483;42.620;25.394;2022-07-23T18:48:51;17.83;;;10.90;;
52590;SDS011;38483;42.620;25.394;2022-07-23T18:51:18;18.97;;;10.07;;
52590;SDS011;38483;42.620;25.394;2022-07-23T18:53:46;12.23;;;6.88;;
52590;SDS011;38483;42.620;25.394;2022-07-23T18:56:13;17.23;;;6.82;;
52590;SDS011;38483;42.620;25.394;2022-07-23T18:58:41;9.63;;;6.30;;
52590;SDS011;38483;42.620;25.394;2022-07-23T19:01:08;10.47;;;5.63;;
52590;SDS011;38483;42.620;25.394;2022-07-23T19:03:38;13.97;;;5.97;;
52590;SDS011;38483;42.620;25.394;2022-07-23T19:06:05;11.17;;;6.63;;
52590;SDS011;38483;42.620;25.394;2022-07-23T19:08:33;12.60;;;6.17;;
52590;SDS011;38483;42.620;25.394;2022-07-23T19:11:00;13.93;;;6.23;;
52590;SDS011;38483;42.620;25.394;2022-07-23T19:13:27;14.03;;;6.07;;
52590;SDS011;38483;42.620;25.394;2022-07-23T19:15:54;8.10;;;5.80;;
52590;SDS011;38483;42.620;25.394;2022-07-23T19:18:22;9.00;;;6.17;;
52590;SDS011;38483;42.620;25.394;2022-07-23T19:20:49;11.50;;;6.00;;
52590;SDS011;38483;42.620;25.394;2022-07-23T19:23:16;12.00;;;6.30;;
52590;SDS011;38483;42.620;25.394;2022-07-23T19:25:43;13.53;;;6.50;;